Granjeno, Texas
Current Conditions -  °F | °C
As of 7:53 PM on Saturday 20 Dec 2014 (Local Time) from KMFE Reporting Station
Overcast Overcast  
Wind Chill: 56°   Ceiling: 3300
Heat Index: 56°   Visibility: 10mi
Dew Point: 51°   Wind: 8mph
Humidity: 84%   Direction: 10°N
Pressure: 30.15"   Gusts: NA
Location:  26.2167°N, 98.325°W
Report Text: KMFE 210153Z 01007KT 10SM SCT013 BKN033 OVC070 13/11 A3015 RMK AO2 SLP210 T01330106
Loading
Personal Weather Stations






























Interactive Weather Map New forecast layout! Learn more

10-Day Weather Forecast

Advertisements
Track Severe Weather on mobile